sensor_id;sensor_type;location;lat;lon;timestamp;P1;durP1;ratioP1;P2;durP2;ratioP2
48751;SDS011;34544;48.836;9.174;2023-02-21T00:00:55;11.13;;;5.90;;
48751;SDS011;34544;48.836;9.174;2023-02-21T00:03:39;9.38;;;5.32;;
48751;SDS011;34544;48.836;9.174;2023-02-21T00:06:24;13.77;;;5.80;;
48751;SDS011;34544;48.836;9.174;2023-02-21T00:09:08;10.32;;;5.50;;
48751;SDS011;34544;48.836;9.174;2023-02-21T00:11:52;13.18;;;5.40;;
48751;SDS011;34544;48.836;9.174;2023-02-21T00:14:37;15.18;;;5.13;;
48751;SDS011;34544;48.836;9.174;2023-02-21T00:17:21;11.02;;;5.13;;
48751;SDS011;34544;48.836;9.174;2023-02-21T00:20:05;8.80;;;4.95;;
48751;SDS011;34544;48.836;9.174;2023-02-21T00:22:50;8.18;;;5.15;;
48751;SDS011;34544;48.836;9.174;2023-02-21T00:25:34;8.98;;;4.75;;
48751;SDS011;34544;48.836;9.174;2023-02-21T00:28:18;9.25;;;4.65;;
48751;SDS011;34544;48.836;9.174;2023-02-21T00:31:03;11.77;;;4.45;;
48751;SDS011;34544;48.836;9.174;2023-02-21T00:33:48;10.70;;;4.32;;
48751;SDS011;34544;48.836;9.174;2023-02-21T00:36:33;8.40;;;4.20;;
48751;SDS011;34544;48.836;9.174;2023-02-21T00:39:17;10.77;;;3.75;;
48751;SDS011;34544;48.836;9.174;2023-02-21T00:42:01;9.40;;;4.47;;
48751;SDS011;34544;48.836;9.174;2023-02-21T00:44:46;10.80;;;4.43;;
48751;SDS011;34544;48.836;9.174;2023-02-21T00:47:30;8.10;;;4.20;;
48751;SDS011;34544;48.836;9.174;2023-02-21T00:50:14;9.93;;;4.03;;
48751;SDS011;34544;48.836;9.174;2023-02-21T00:52:59;8.57;;;4.47;;
48751;SDS011;34544;48.836;9.174;2023-02-21T00:55:43;9.38;;;3.97;;
48751;SDS011;34544;48.836;9.174;2023-02-21T00:58:27;8.25;;;4.82;;
48751;SDS011;34544;48.836;9.174;2023-02-21T01:01:11;8.18;;;4.18;;
48751;SDS011;34544;48.836;9.174;2023-02-21T01:03:58;6.63;;;4.13;;
48751;SDS011;34544;48.836;9.174;2023-02-21T01:06:44;12.50;;;4.90;;
48751;SDS011;34544;48.836;9.174;2023-02-21T01:09:28;6.90;;;3.97;;
48751;SDS011;34544;48.836;9.174;2023-02-21T01:12:13;8.75;;;4.60;;
48751;SDS011;34544;48.836;9.174;2023-02-21T01:14:57;11.93;;;4.20;;
48751;SDS011;34544;48.836;9.174;2023-02-21T01:17:41;9.68;;;5.00;;
48751;SDS011;34544;48.836;9.174;2023-02-21T01:20:26;10.93;;;4.55;;
48751;SDS011;34544;48.836;9.174;2023-02-21T01:23:10;8.00;;;4.80;;
48751;SDS011;34544;48.836;9.174;2023-02-21T01:25:54;8.95;;;5.15;;
48751;SDS011;34544;48.836;9.174;2023-02-21T01:28:39;5.88;;;4.03;;
48751;SDS011;34544;48.836;9.174;2023-02-21T01:31:23;8.52;;;4.80;;
48751;SDS011;34544;48.836;9.174;2023-02-21T01:34:07;9.75;;;4.60;;
48751;SDS011;34544;48.836;9.174;2023-02-21T01:36:52;9.98;;;5.15;;
48751;SDS011;34544;48.836;9.174;2023-02-21T01:39:36;8.57;;;3.90;;
48751;SDS011;34544;48.836;9.174;2023-02-21T01:42:21;9.60;;;4.00;;
48751;SDS011;34544;48.836;9.174;2023-02-21T01:48:09;6.63;;;3.88;;
48751;SDS011;34544;48.836;9.174;2023-02-21T01:50:56;8.52;;;3.58;;
48751;SDS011;34544;48.836;9.174;2023-02-21T01:53:42;8.90;;;4.05;;
48751;SDS011;34544;48.836;9.174;2023-02-21T01:56:27;7.78;;;3.67;;
48751;SDS011;34544;48.836;9.174;2023-02-21T01:59:13;9.95;;;4.55;;
48751;SDS011;34544;48.836;9.174;2023-02-21T02:02:00;7.57;;;3.85;;
48751;SDS011;34544;48.836;9.174;2023-02-21T02:04:48;8.50;;;3.65;;
48751;SDS011;34544;48.836;9.174;2023-02-21T02:07:34;9.65;;;4.45;;
48751;SDS011;34544;48.836;9.174;2023-02-21T02:10:20;7.20;;;3.42;;
48751;SDS011;34544;48.836;9.174;2023-02-21T02:21:16;8.25;;;3.83;;
48751;SDS011;34544;48.836;9.174;2023-02-21T02:32:19;9.90;;;3.58;;
48751;SDS011;34544;48.836;9.174;2023-02-21T02:37:47;6.18;;;4.03;;
48751;SDS011;34544;48.836;9.174;2023-02-21T02:45:57;9.95;;;3.63;;
48751;SDS011;34544;48.836;9.174;2023-02-21T02:51:07;7.82;;;4.05;;
48751;SDS011;34544;48.836;9.174;2023-02-21T02:53:37;11.18;;;4.10;;
48751;SDS011;34544;48.836;9.174;2023-02-21T02:56:05;5.80;;;3.75;;
48751;SDS011;34544;48.836;9.174;2023-02-21T02:58:37;4.78;;;3.72;;
48751;SDS011;34544;48.836;9.174;2023-02-21T03:09:44;9.07;;;3.58;;
48751;SDS011;34544;48.836;9.174;2023-02-21T03:12:21;6.75;;;3.80;;
48751;SDS011;34544;48.836;9.174;2023-02-21T03:15:00;6.72;;;3.92;;
48751;SDS011;34544;48.836;9.174;2023-02-21T03:17:35;7.18;;;3.83;;
48751;SDS011;34544;48.836;9.174;2023-02-21T03:20:07;6.05;;;3.35;;
48751;SDS011;34544;48.836;9.174;2023-02-21T03:22:35;5.97;;;3.58;;
48751;SDS011;34544;48.836;9.174;2023-02-21T03:25:01;10.27;;;3.47;;
48751;SDS011;34544;48.836;9.174;2023-02-21T03:27:29;9.30;;;4.10;;
48751;SDS011;34544;48.836;9.174;2023-02-21T03:30:02;11.20;;;4.05;;
48751;SDS011;34544;48.836;9.174;2023-02-21T03:32:30;7.88;;;4.68;;
48751;SDS011;34544;48.836;9.174;2023-02-21T03:35:09;7.53;;;4.82;;
48751;SDS011;34544;48.836;9.174;2023-02-21T03:37:38;8.93;;;4.88;;
48751;SDS011;34544;48.836;9.174;2023-02-21T03:40:15;8.95;;;4.18;;
48751;SDS011;34544;48.836;9.174;2023-02-21T03:42:52;8.95;;;4.57;;
48751;SDS011;34544;48.836;9.174;2023-02-21T03:45:19;8.10;;;3.65;;
48751;SDS011;34544;48.836;9.174;2023-02-21T03:47:59;8.70;;;3.55;;
48751;SDS011;34544;48.836;9.174;2023-02-21T03:50:24;6.38;;;3.72;;
48751;SDS011;34544;48.836;9.174;2023-02-21T03:52:50;6.38;;;4.18;;
48751;SDS011;34544;48.836;9.174;2023-02-21T03:55:16;8.00;;;4.38;;
48751;SDS011;34544;48.836;9.174;2023-02-21T03:57:42;14.98;;;5.00;;
48751;SDS011;34544;48.836;9.174;2023-02-21T04:00:08;7.05;;;3.97;;
48751;SDS011;34544;48.836;9.174;2023-02-21T04:05:06;10.52;;;4.43;;
48751;SDS011;34544;48.836;9.174;2023-02-21T04:07:32;16.67;;;4.65;;
48751;SDS011;34544;48.836;9.174;2023-02-21T04:09:58;11.43;;;3.70;;
48751;SDS011;34544;48.836;9.174;2023-02-21T04:12:34;10.25;;;3.75;;
48751;SDS011;34544;48.836;9.174;2023-02-21T04:14:59;9.05;;;3.85;;
48751;SDS011;34544;48.836;9.174;2023-02-21T04:17:25;6.55;;;3.97;;
48751;SDS011;34544;48.836;9.174;2023-02-21T04:19:52;8.15;;;3.70;;
48751;SDS011;34544;48.836;9.174;2023-02-21T04:22:18;6.93;;;4.22;;
48751;SDS011;34544;48.836;9.174;2023-02-21T04:24:44;10.55;;;4.22;;
48751;SDS011;34544;48.836;9.174;2023-02-21T04:27:12;11.00;;;4.63;;
48751;SDS011;34544;48.836;9.174;2023-02-21T04:29:45;9.45;;;5.65;;
48751;SDS011;34544;48.836;9.174;2023-02-21T04:32:11;10.25;;;4.38;;
48751;SDS011;34544;48.836;9.174;2023-02-21T04:34:37;9.23;;;4.70;;
48751;SDS011;34544;48.836;9.174;2023-02-21T04:37:03;7.93;;;4.22;;
48751;SDS011;34544;48.836;9.174;2023-02-21T04:39:31;9.35;;;4.22;;
48751;SDS011;34544;48.836;9.174;2023-02-21T04:41:56;8.73;;;4.68;;
48751;SDS011;34544;48.836;9.174;2023-02-21T04:44:22;10.30;;;4.95;;
48751;SDS011;34544;48.836;9.174;2023-02-21T04:46:48;10.85;;;5.88;;
48751;SDS011;34544;48.836;9.174;2023-02-21T04:49:14;8.52;;;5.70;;
48751;SDS011;34544;48.836;9.174;2023-02-21T04:51:39;13.85;;;5.57;;
48751;SDS011;34544;48.836;9.174;2023-02-21T04:54:05;9.77;;;5.57;;
48751;SDS011;34544;48.836;9.174;2023-02-21T04:56:31;10.90;;;5.65;;
48751;SDS011;34544;48.836;9.174;2023-02-21T04:58:57;8.10;;;4.55;;
48751;SDS011;34544;48.836;9.174;2023-02-21T05:01:25;10.73;;;5.25;;
48751;SDS011;34544;48.836;9.174;2023-02-21T05:03:53;12.07;;;5.15;;
48751;SDS011;34544;48.836;9.174;2023-02-21T05:06:19;11.35;;;5.82;;
48751;SDS011;34544;48.836;9.174;2023-02-21T05:08:46;10.52;;;5.88;;
48751;SDS011;34544;48.836;9.174;2023-02-21T05:11:12;16.33;;;8.70;;
48751;SDS011;34544;48.836;9.174;2023-02-21T05:13:38;15.55;;;9.05;;
48751;SDS011;34544;48.836;9.174;2023-02-21T05:16:04;23.00;;;9.80;;
48751;SDS011;34544;48.836;9.174;2023-02-21T05:18:29;21.98;;;8.85;;
48751;SDS011;34544;48.836;9.174;2023-02-21T05:20:55;16.05;;;8.82;;
48751;SDS011;34544;48.836;9.174;2023-02-21T05:23:21;16.52;;;7.60;;
48751;SDS011;34544;48.836;9.174;2023-02-21T05:25:58;15.73;;;7.88;;
48751;SDS011;34544;48.836;9.174;2023-02-21T05:28:25;12.07;;;6.50;;
48751;SDS011;34544;48.836;9.174;2023-02-21T05:30:50;11.20;;;6.50;;
48751;SDS011;34544;48.836;9.174;2023-02-21T05:33:16;16.45;;;6.00;;
48751;SDS011;34544;48.836;9.174;2023-02-21T05:35:42;14.68;;;7.63;;
48751;SDS011;34544;48.836;9.174;2023-02-21T05:38:10;15.32;;;6.55;;
48751;SDS011;34544;48.836;9.174;2023-02-21T05:40:36;13.20;;;6.85;;
48751;SDS011;34544;48.836;9.174;2023-02-21T05:43:02;13.45;;;6.38;;
48751;SDS011;34544;48.836;9.174;2023-02-21T05:45:27;13.45;;;7.18;;
48751;SDS011;34544;48.836;9.174;2023-02-21T05:47:53;13.90;;;7.22;;
48751;SDS011;34544;48.836;9.174;2023-02-21T05:50:24;12.10;;;7.25;;
48751;SDS011;34544;48.836;9.174;2023-02-21T05:52:50;16.52;;;7.82;;
48751;SDS011;34544;48.836;9.174;2023-02-21T05:55:16;11.30;;;6.82;;
48751;SDS011;34544;48.836;9.174;2023-02-21T05:57:41;14.63;;;5.95;;
48751;SDS011;34544;48.836;9.174;2023-02-21T06:00:12;12.45;;;5.60;;
48751;SDS011;34544;48.836;9.174;2023-02-21T06:02:42;13.63;;;6.05;;
48751;SDS011;34544;48.836;9.174;2023-02-21T06:05:07;9.48;;;5.57;;
48751;SDS011;34544;48.836;9.174;2023-02-21T06:07:33;13.82;;;6.05;;
48751;SDS011;34544;48.836;9.174;2023-02-21T06:09:58;11.50;;;6.00;;
48751;SDS011;34544;48.836;9.174;2023-02-21T06:12:24;12.05;;;5.82;;
48751;SDS011;34544;48.836;9.174;2023-02-21T06:14:50;10.90;;;6.00;;
48751;SDS011;34544;48.836;9.174;2023-02-21T06:17:15;12.43;;;6.30;;
48751;SDS011;34544;48.836;9.174;2023-02-21T06:19:41;12.23;;;5.55;;
48751;SDS011;34544;48.836;9.174;2023-02-21T06:22:06;17.38;;;6.40;;
48751;SDS011;34544;48.836;9.174;2023-02-21T06:24:32;8.63;;;5.30;;
48751;SDS011;34544;48.836;9.174;2023-02-21T06:26:58;12.18;;;6.18;;
48751;SDS011;34544;48.836;9.174;2023-02-21T06:29:23;21.40;;;6.95;;
48751;SDS011;34544;48.836;9.174;2023-02-21T06:31:49;13.60;;;6.45;;
48751;SDS011;34544;48.836;9.174;2023-02-21T06:34:19;15.30;;;6.60;;
48751;SDS011;34544;48.836;9.174;2023-02-21T06:36:45;16.08;;;6.20;;
48751;SDS011;34544;48.836;9.174;2023-02-21T06:39:15;23.08;;;6.47;;
48751;SDS011;34544;48.836;9.174;2023-02-21T06:41:40;23.35;;;6.57;;
48751;SDS011;34544;48.836;9.174;2023-02-21T06:44:06;16.67;;;7.55;;
48751;SDS011;34544;48.836;9.174;2023-02-21T06:46:32;25.00;;;7.43;;
48751;SDS011;34544;48.836;9.174;2023-02-21T06:49:00;12.65;;;6.68;;
48751;SDS011;34544;48.836;9.174;2023-02-21T06:51:25;11.32;;;6.60;;
48751;SDS011;34544;48.836;9.174;2023-02-21T06:53:53;16.85;;;6.85;;
48751;SDS011;34544;48.836;9.174;2023-02-21T06:56:20;19.92;;;7.22;;
48751;SDS011;34544;48.836;9.174;2023-02-21T06:58:46;11.13;;;6.20;;
48751;SDS011;34544;48.836;9.174;2023-02-21T07:01:11;25.20;;;8.13;;
48751;SDS011;34544;48.836;9.174;2023-02-21T07:03:40;13.30;;;6.55;;
48751;SDS011;34544;48.836;9.174;2023-02-21T07:06:07;15.40;;;6.47;;
48751;SDS011;34544;48.836;9.174;2023-02-21T07:08:33;24.02;;;7.85;;
48751;SDS011;34544;48.836;9.174;2023-02-21T07:10:58;13.02;;;6.90;;
48751;SDS011;34544;48.836;9.174;2023-02-21T07:13:24;10.00;;;5.95;;
48751;SDS011;34544;48.836;9.174;2023-02-21T07:15:49;22.83;;;6.22;;
48751;SDS011;34544;48.836;9.174;2023-02-21T07:18:15;15.73;;;7.90;;
48751;SDS011;34544;48.836;9.174;2023-02-21T07:20:41;10.95;;;6.18;;
48751;SDS011;34544;48.836;9.174;2023-02-21T07:23:06;16.42;;;6.15;;
48751;SDS011;34544;48.836;9.174;2023-02-21T07:25:32;15.60;;;6.40;;
48751;SDS011;34544;48.836;9.174;2023-02-21T07:27:57;12.18;;;5.82;;
48751;SDS011;34544;48.836;9.174;2023-02-21T07:30:23;11.95;;;5.68;;
48751;SDS011;34544;48.836;9.174;2023-02-21T07:32:49;15.38;;;7.18;;
48751;SDS011;34544;48.836;9.174;2023-02-21T07:35:14;11.55;;;6.75;;
48751;SDS011;34544;48.836;9.174;2023-02-21T07:37:40;13.90;;;6.07;;
48751;SDS011;34544;48.836;9.174;2023-02-21T07:40:06;13.60;;;6.32;;
48751;SDS011;34544;48.836;9.174;2023-02-21T07:42:32;10.93;;;6.95;;
48751;SDS011;34544;48.836;9.174;2023-02-21T07:44:58;20.85;;;5.95;;
48751;SDS011;34544;48.836;9.174;2023-02-21T07:47:24;11.20;;;6.15;;
48751;SDS011;34544;48.836;9.174;2023-02-21T07:49:50;14.38;;;6.28;;
48751;SDS011;34544;48.836;9.174;2023-02-21T07:52:18;13.90;;;6.85;;
48751;SDS011;34544;48.836;9.174;2023-02-21T07:54:44;14.55;;;7.03;;
48751;SDS011;34544;48.836;9.174;2023-02-21T07:57:10;9.25;;;5.90;;
48751;SDS011;34544;48.836;9.174;2023-02-21T07:59:35;10.88;;;5.68;;
48751;SDS011;34544;48.836;9.174;2023-02-21T08:02:01;11.93;;;6.10;;
48751;SDS011;34544;48.836;9.174;2023-02-21T08:04:27;10.40;;;6.03;;
48751;SDS011;34544;48.836;9.174;2023-02-21T08:06:57;9.13;;;5.10;;
48751;SDS011;34544;48.836;9.174;2023-02-21T08:09:26;9.48;;;5.78;;
48751;SDS011;34544;48.836;9.174;2023-02-21T08:11:52;12.10;;;5.85;;
48751;SDS011;34544;48.836;9.174;2023-02-21T08:14:18;14.90;;;6.85;;
48751;SDS011;34544;48.836;9.174;2023-02-21T08:16:44;14.25;;;6.28;;
48751;SDS011;34544;48.836;9.174;2023-02-21T08:19:09;9.98;;;6.00;;
48751;SDS011;34544;48.836;9.174;2023-02-21T08:21:35;14.38;;;6.78;;
48751;SDS011;34544;48.836;9.174;2023-02-21T08:24:01;15.63;;;6.53;;
48751;SDS011;34544;48.836;9.174;2023-02-21T08:26:27;11.82;;;6.03;;
48751;SDS011;34544;48.836;9.174;2023-02-21T08:28:53;13.43;;;5.03;;
48751;SDS011;34544;48.836;9.174;2023-02-21T08:31:19;8.27;;;5.35;;
48751;SDS011;34544;48.836;9.174;2023-02-21T08:33:45;8.77;;;4.35;;
48751;SDS011;34544;48.836;9.174;2023-02-21T08:36:11;9.00;;;4.88;;
48751;SDS011;34544;48.836;9.174;2023-02-21T08:38:37;9.60;;;4.47;;
48751;SDS011;34544;48.836;9.174;2023-02-21T08:41:03;6.32;;;4.68;;
48751;SDS011;34544;48.836;9.174;2023-02-21T08:43:30;9.45;;;4.35;;
48751;SDS011;34544;48.836;9.174;2023-02-21T08:45:56;6.68;;;4.35;;
48751;SDS011;34544;48.836;9.174;2023-02-21T08:48:22;5.93;;;4.10;;
48751;SDS011;34544;48.836;9.174;2023-02-21T08:50:48;6.40;;;4.30;;
48751;SDS011;34544;48.836;9.174;2023-02-21T08:53:14;10.10;;;4.47;;
48751;SDS011;34544;48.836;9.174;2023-02-21T08:55:39;8.27;;;4.28;;
48751;SDS011;34544;48.836;9.174;2023-02-21T08:58:08;7.78;;;4.57;;
48751;SDS011;34544;48.836;9.174;2023-02-21T09:00:35;7.60;;;4.18;;
48751;SDS011;34544;48.836;9.174;2023-02-21T09:03:01;7.18;;;4.18;;
48751;SDS011;34544;48.836;9.174;2023-02-21T09:05:28;6.10;;;4.13;;
48751;SDS011;34544;48.836;9.174;2023-02-21T09:07:55;5.13;;;3.85;;
48751;SDS011;34544;48.836;9.174;2023-02-21T09:10:26;6.18;;;3.53;;
48751;SDS011;34544;48.836;9.174;2023-02-21T09:12:58;5.55;;;4.13;;
48751;SDS011;34544;48.836;9.174;2023-02-21T09:15:24;12.20;;;4.25;;
48751;SDS011;34544;48.836;9.174;2023-02-21T09:17:50;5.60;;;3.97;;
48751;SDS011;34544;48.836;9.174;2023-02-21T09:20:17;7.45;;;3.80;;
48751;SDS011;34544;48.836;9.174;2023-02-21T09:22:45;10.93;;;4.53;;
48751;SDS011;34544;48.836;9.174;2023-02-21T09:25:11;6.60;;;4.47;;
48751;SDS011;34544;48.836;9.174;2023-02-21T09:27:39;7.60;;;4.75;;
48751;SDS011;34544;48.836;9.174;2023-02-21T09:30:06;13.70;;;4.50;;
48751;SDS011;34544;48.836;9.174;2023-02-21T09:32:38;8.38;;;4.55;;
48751;SDS011;34544;48.836;9.174;2023-02-21T09:35:04;10.68;;;4.95;;
48751;SDS011;34544;48.836;9.174;2023-02-21T09:37:30;9.57;;;4.80;;
48751;SDS011;34544;48.836;9.174;2023-02-21T09:39:56;8.18;;;5.00;;
48751;SDS011;34544;48.836;9.174;2023-02-21T09:42:24;6.28;;;4.38;;
48751;SDS011;34544;48.836;9.174;2023-02-21T09:44:51;7.45;;;4.68;;
48751;SDS011;34544;48.836;9.174;2023-02-21T09:47:27;9.68;;;4.20;;
48751;SDS011;34544;48.836;9.174;2023-02-21T09:50:03;11.82;;;5.22;;
48751;SDS011;34544;48.836;9.174;2023-02-21T09:52:33;8.57;;;4.43;;
48751;SDS011;34544;48.836;9.174;2023-02-21T09:55:13;9.90;;;4.50;;
48751;SDS011;34544;48.836;9.174;2023-02-21T09:57:55;10.13;;;4.45;;
48751;SDS011;34544;48.836;9.174;2023-02-21T10:00:22;8.77;;;4.35;;
48751;SDS011;34544;48.836;9.174;2023-02-21T10:08:37;7.28;;;3.85;;
48751;SDS011;34544;48.836;9.174;2023-02-21T10:14:33;6.68;;;3.90;;
48751;SDS011;34544;48.836;9.174;2023-02-21T10:17:14;10.23;;;3.40;;
48751;SDS011;34544;48.836;9.174;2023-02-21T10:19:49;6.10;;;3.67;;
48751;SDS011;34544;48.836;9.174;2023-02-21T10:22:19;6.80;;;3.50;;
48751;SDS011;34544;48.836;9.174;2023-02-21T10:24:47;7.20;;;3.47;;
48751;SDS011;34544;48.836;9.174;2023-02-21T10:27:18;7.18;;;2.92;;
48751;SDS011;34544;48.836;9.174;2023-02-21T10:32:16;5.95;;;3.70;;
48751;SDS011;34544;48.836;9.174;2023-02-21T10:34:42;7.90;;;3.90;;
48751;SDS011;34544;48.836;9.174;2023-02-21T10:40:21;8.40;;;3.35;;
48751;SDS011;34544;48.836;9.174;2023-02-21T10:42:49;10.68;;;5.05;;
48751;SDS011;34544;48.836;9.174;2023-02-21T10:45:19;10.20;;;4.25;;
48751;SDS011;34544;48.836;9.174;2023-02-21T10:47:55;5.68;;;3.63;;
48751;SDS011;34544;48.836;9.174;2023-02-21T10:53:46;5.45;;;3.13;;
48751;SDS011;34544;48.836;9.174;2023-02-21T10:58:51;4.88;;;2.58;;
48751;SDS011;34544;48.836;9.174;2023-02-21T11:03:50;5.30;;;2.90;;
48751;SDS011;34544;48.836;9.174;2023-02-21T11:06:30;3.30;;;2.50;;
48751;SDS011;34544;48.836;9.174;2023-02-21T11:08:56;8.77;;;2.55;;
48751;SDS011;34544;48.836;9.174;2023-02-21T11:11:33;3.28;;;2.33;;
48751;SDS011;34544;48.836;9.174;2023-02-21T11:16:43;6.10;;;2.60;;
48751;SDS011;34544;48.836;9.174;2023-02-21T11:19:11;4.53;;;2.90;;
48751;SDS011;34544;48.836;9.174;2023-02-21T11:21:38;8.95;;;3.38;;
48751;SDS011;34544;48.836;9.174;2023-02-21T11:24:06;4.22;;;2.88;;
48751;SDS011;34544;48.836;9.174;2023-02-21T11:26:44;7.05;;;3.33;;
48751;SDS011;34544;48.836;9.174;2023-02-21T11:29:16;4.75;;;3.15;;
48751;SDS011;34544;48.836;9.174;2023-02-21T11:31:45;9.48;;;3.47;;
48751;SDS011;34544;48.836;9.174;2023-02-21T11:34:12;5.88;;;3.47;;
48751;SDS011;34544;48.836;9.174;2023-02-21T11:36:39;5.25;;;2.88;;
48751;SDS011;34544;48.836;9.174;2023-02-21T11:41:48;3.75;;;2.45;;
48751;SDS011;34544;48.836;9.174;2023-02-21T11:44:25;6.43;;;2.72;;
48751;SDS011;34544;48.836;9.174;2023-02-21T11:55:11;8.85;;;2.75;;
48751;SDS011;34544;48.836;9.174;2023-02-21T11:57:43;7.10;;;3.00;;
48751;SDS011;34544;48.836;9.174;2023-02-21T12:00:23;4.53;;;2.33;;
48751;SDS011;34544;48.836;9.174;2023-02-21T12:06:26;4.40;;;2.50;;
48751;SDS011;34544;48.836;9.174;2023-02-21T12:10:02;6.95;;;2.10;;
48751;SDS011;34544;48.836;9.174;2023-02-21T12:17:51;5.07;;;1.80;;
48751;SDS011;34544;48.836;9.174;2023-02-21T12:23:04;2.67;;;1.60;;
48751;SDS011;34544;48.836;9.174;2023-02-21T12:28:58;2.33;;;1.50;;
48751;SDS011;34544;48.836;9.174;2023-02-21T12:31:36;3.60;;;1.65;;
48751;SDS011;34544;48.836;9.174;2023-02-21T12:34:15;2.40;;;1.58;;
48751;SDS011;34544;48.836;9.174;2023-02-21T12:36:53;2.67;;;1.60;;
48751;SDS011;34544;48.836;9.174;2023-02-21T12:39:31;4.35;;;1.88;;
48751;SDS011;34544;48.836;9.174;2023-02-21T12:42:37;4.65;;;2.42;;
48751;SDS011;34544;48.836;9.174;2023-02-21T12:45:35;3.67;;;2.25;;
48751;SDS011;34544;48.836;9.174;2023-02-21T12:50:55;3.45;;;1.65;;
48751;SDS011;34544;48.836;9.174;2023-02-21T12:53:24;6.13;;;1.75;;
48751;SDS011;34544;48.836;9.174;2023-02-21T12:56:01;4.18;;;1.92;;
48751;SDS011;34544;48.836;9.174;2023-02-21T13:01:10;2.58;;;1.83;;
48751;SDS011;34544;48.836;9.174;2023-02-21T13:06:58;3.60;;;2.28;;
48751;SDS011;34544;48.836;9.174;2023-02-21T13:10:02;4.75;;;2.00;;
48751;SDS011;34544;48.836;9.174;2023-02-21T13:12:39;2.63;;;1.38;;
48751;SDS011;34544;48.836;9.174;2023-02-21T13:15:15;3.10;;;1.63;;
48751;SDS011;34544;48.836;9.174;2023-02-21T13:17:57;2.60;;;1.35;;
48751;SDS011;34544;48.836;9.174;2023-02-21T13:20:23;3.83;;;1.70;;
48751;SDS011;34544;48.836;9.174;2023-02-21T13:26:44;2.33;;;1.45;;
48751;SDS011;34544;48.836;9.174;2023-02-21T13:29:19;1.95;;;1.23;;
48751;SDS011;34544;48.836;9.174;2023-02-21T13:32:00;4.28;;;1.45;;
48751;SDS011;34544;48.836;9.174;2023-02-21T13:34:39;2.13;;;1.33;;
48751;SDS011;34544;48.836;9.174;2023-02-21T13:37:15;4.75;;;1.30;;
48751;SDS011;34544;48.836;9.174;2023-02-21T13:39:45;1.90;;;1.30;;
48751;SDS011;34544;48.836;9.174;2023-02-21T13:42:17;4.03;;;1.55;;
48751;SDS011;34544;48.836;9.174;2023-02-21T13:44:47;3.50;;;1.25;;
48751;SDS011;34544;48.836;9.174;2023-02-21T13:47:15;3.78;;;1.42;;
48751;SDS011;34544;48.836;9.174;2023-02-21T13:49:55;3.95;;;1.38;;
48751;SDS011;34544;48.836;9.174;2023-02-21T14:05:25;3.63;;;1.05;;
48751;SDS011;34544;48.836;9.174;2023-02-21T14:08:11;2.20;;;0.80;;
48751;SDS011;34544;48.836;9.174;2023-02-21T14:15:57;2.05;;;1.00;;
48751;SDS011;34544;48.836;9.174;2023-02-21T14:18:50;2.47;;;1.67;;
48751;SDS011;34544;48.836;9.174;2023-02-21T14:26:42;3.20;;;1.15;;
48751;SDS011;34544;48.836;9.174;2023-02-21T14:37:24;2.75;;;0.93;;
48751;SDS011;34544;48.836;9.174;2023-02-21T14:39:59;4.35;;;1.38;;
48751;SDS011;34544;48.836;9.174;2023-02-21T14:45:12;3.28;;;1.60;;
48751;SDS011;34544;48.836;9.174;2023-02-21T14:57:09;3.92;;;1.33;;
48751;SDS011;34544;48.836;9.174;2023-02-21T14:59:05;1.42;;;0.98;;
48751;SDS011;34544;48.836;9.174;2023-02-21T15:07:00;2.13;;;0.95;;
48751;SDS011;34544;48.836;9.174;2023-02-21T15:09:45;1.88;;;1.40;;
48751;SDS011;34544;48.836;9.174;2023-02-21T15:12:35;3.78;;;1.15;;
48751;SDS011;34544;48.836;9.174;2023-02-21T15:15:10;2.00;;;1.30;;
48751;SDS011;34544;48.836;9.174;2023-02-21T15:17:40;2.72;;;1.35;;
48751;SDS011;34544;48.836;9.174;2023-02-21T15:20:15;2.30;;;1.38;;
48751;SDS011;34544;48.836;9.174;2023-02-21T15:22:42;3.53;;;1.80;;
48751;SDS011;34544;48.836;9.174;2023-02-21T15:27:34;4.43;;;1.60;;
48751;SDS011;34544;48.836;9.174;2023-02-21T15:32:38;7.20;;;1.65;;
48751;SDS011;34544;48.836;9.174;2023-02-21T15:35:04;3.38;;;1.70;;
48751;SDS011;34544;48.836;9.174;2023-02-21T15:37:34;2.63;;;1.95;;
48751;SDS011;34544;48.836;9.174;2023-02-21T15:40:05;3.10;;;1.60;;
48751;SDS011;34544;48.836;9.174;2023-02-21T15:42:39;4.68;;;1.67;;
48751;SDS011;34544;48.836;9.174;2023-02-21T15:45:08;4.60;;;1.67;;
48751;SDS011;34544;48.836;9.174;2023-02-21T15:48:04;5.20;;;1.55;;
48751;SDS011;34544;48.836;9.174;2023-02-21T15:50:35;2.40;;;1.20;;
48751;SDS011;34544;48.836;9.174;2023-02-21T15:56:21;2.15;;;1.20;;
48751;SDS011;34544;48.836;9.174;2023-02-21T15:59:06;3.00;;;1.42;;
48751;SDS011;34544;48.836;9.174;2023-02-21T16:02:05;7.32;;;2.33;;
48751;SDS011;34544;48.836;9.174;2023-02-21T16:04:39;3.88;;;1.85;;
48751;SDS011;34544;48.836;9.174;2023-02-21T16:07:14;2.95;;;1.88;;
48751;SDS011;34544;48.836;9.174;2023-02-21T16:09:46;5.15;;;1.70;;
48751;SDS011;34544;48.836;9.174;2023-02-21T16:15:01;2.75;;;1.30;;
48751;SDS011;34544;48.836;9.174;2023-02-21T16:17:36;5.38;;;1.50;;
48751;SDS011;34544;48.836;9.174;2023-02-21T16:22:48;5.95;;;1.90;;
48751;SDS011;34544;48.836;9.174;2023-02-21T16:25:17;3.70;;;1.63;;
48751;SDS011;34544;48.836;9.174;2023-02-21T16:27:52;2.72;;;1.30;;
48751;SDS011;34544;48.836;9.174;2023-02-21T16:30:29;2.63;;;1.85;;
48751;SDS011;34544;48.836;9.174;2023-02-21T16:32:59;9.90;;;2.83;;
48751;SDS011;34544;48.836;9.174;2023-02-21T16:35:27;8.05;;;2.50;;
48751;SDS011;34544;48.836;9.174;2023-02-21T16:37:55;7.35;;;2.35;;
48751;SDS011;34544;48.836;9.174;2023-02-21T16:40:26;7.88;;;2.92;;
48751;SDS011;34544;48.836;9.174;2023-02-21T16:42:57;4.45;;;2.45;;
48751;SDS011;34544;48.836;9.174;2023-02-21T16:45:25;8.60;;;4.55;;
48751;SDS011;34544;48.836;9.174;2023-02-21T16:48:00;11.05;;;5.38;;
48751;SDS011;34544;48.836;9.174;2023-02-21T16:50:35;9.15;;;5.57;;
48751;SDS011;34544;48.836;9.174;2023-02-21T16:53:02;10.55;;;6.15;;
48751;SDS011;34544;48.836;9.174;2023-02-21T16:55:28;19.95;;;10.77;;
48751;SDS011;34544;48.836;9.174;2023-02-21T16:57:55;15.73;;;8.65;;
48751;SDS011;34544;48.836;9.174;2023-02-21T17:00:28;17.70;;;8.43;;
48751;SDS011;34544;48.836;9.174;2023-02-21T17:02:56;16.50;;;8.45;;
48751;SDS011;34544;48.836;9.174;2023-02-21T17:05:22;11.90;;;7.65;;
48751;SDS011;34544;48.836;9.174;2023-02-21T17:07:49;12.10;;;6.45;;
48751;SDS011;34544;48.836;9.174;2023-02-21T17:10:17;10.98;;;5.68;;
48751;SDS011;34544;48.836;9.174;2023-02-21T17:12:43;7.50;;;3.80;;
48751;SDS011;34544;48.836;9.174;2023-02-21T17:15:09;8.52;;;3.97;;
48751;SDS011;34544;48.836;9.174;2023-02-21T17:17:35;6.75;;;3.58;;
48751;SDS011;34544;48.836;9.174;2023-02-21T17:20:01;7.10;;;3.17;;
48751;SDS011;34544;48.836;9.174;2023-02-21T17:22:28;10.85;;;3.45;;
48751;SDS011;34544;48.836;9.174;2023-02-21T17:24:53;5.45;;;2.92;;
48751;SDS011;34544;48.836;9.174;2023-02-21T17:27:20;9.18;;;2.92;;
48751;SDS011;34544;48.836;9.174;2023-02-21T17:29:46;8.43;;;2.97;;
48751;SDS011;34544;48.836;9.174;2023-02-21T17:32:12;11.48;;;4.60;;
48751;SDS011;34544;48.836;9.174;2023-02-21T17:34:38;11.70;;;3.05;;
48751;SDS011;34544;48.836;9.174;2023-02-21T17:37:04;7.15;;;3.80;;
48751;SDS011;34544;48.836;9.174;2023-02-21T17:39:30;10.65;;;2.92;;
48751;SDS011;34544;48.836;9.174;2023-02-21T17:41:55;8.32;;;3.53;;
48751;SDS011;34544;48.836;9.174;2023-02-21T17:44:21;7.65;;;2.85;;
48751;SDS011;34544;48.836;9.174;2023-02-21T17:46:49;8.38;;;3.45;;
48751;SDS011;34544;48.836;9.174;2023-02-21T17:49:17;7.97;;;3.22;;
48751;SDS011;34544;48.836;9.174;2023-02-21T17:51:45;7.32;;;3.30;;
48751;SDS011;34544;48.836;9.174;2023-02-21T17:54:14;12.07;;;3.75;;
48751;SDS011;34544;48.836;9.174;2023-02-21T17:56:41;8.20;;;3.25;;
48751;SDS011;34544;48.836;9.174;2023-02-21T17:59:07;6.03;;;2.92;;